sensor_id;sensor_type;location;lat;lon;timestamp;pressure;altitude;pressure_sealevel;temperature;humidity
45071;BME280;30836;48.906;9.140;2023-01-31T00:00:55;995.35;;;9.49;49.95
45071;BME280;30836;48.906;9.140;2023-01-31T00:01:55;995.33;;;9.38;50.58
45071;BME280;30836;48.906;9.140;2023-01-31T00:02:56;995.39;;;9.22;50.68
45071;BME280;30836;48.906;9.140;2023-01-31T00:03:57;995.39;;;9.14;50.86
45071;BME280;30836;48.906;9.140;2023-01-31T00:05:00;995.37;;;9.01;51.49
45071;BME280;30836;48.906;9.140;2023-01-31T00:07:10;995.33;;;8.80;51.86
45071;BME280;30836;48.906;9.140;2023-01-31T00:08:11;995.35;;;8.60;52.49
45071;BME280;30836;48.906;9.140;2023-01-31T00:09:11;995.33;;;8.39;52.83
45071;BME280;30836;48.906;9.140;2023-01-31T00:10:12;995.29;;;8.27;53.40
45071;BME280;30836;48.906;9.140;2023-01-31T00:11:13;995.35;;;8.16;53.37
45071;BME280;30836;48.906;9.140;2023-01-31T00:12:15;995.31;;;8.07;53.86
45071;BME280;30836;48.906;9.140;2023-01-31T00:13:15;995.29;;;7.97;53.85
45071;BME280;30836;48.906;9.140;2023-01-31T00:14:17;995.23;;;7.92;53.91
45071;BME280;30836;48.906;9.140;2023-01-31T00:15:19;995.21;;;7.94;53.79
45071;BME280;30836;48.906;9.140;2023-01-31T00:16:20;995.23;;;7.96;53.75
45071;BME280;30836;48.906;9.140;2023-01-31T00:17:21;995.25;;;8.05;53.36
45071;BME280;30836;48.906;9.140;2023-01-31T00:18:22;995.27;;;8.18;52.99
45071;BME280;30836;48.906;9.140;2023-01-31T00:19:23;995.29;;;8.28;52.55
45071;BME280;30836;48.906;9.140;2023-01-31T00:20:23;995.29;;;8.39;52.04
45071;BME280;30836;48.906;9.140;2023-01-31T00:21:24;995.23;;;8.51;51.90
45071;BME280;30836;48.906;9.140;2023-01-31T00:22:26;995.23;;;8.64;51.54
45071;BME280;30836;48.906;9.140;2023-01-31T00:23:27;995.25;;;8.70;51.28
45071;BME280;30836;48.906;9.140;2023-01-31T00:24:27;995.21;;;8.70;51.60
45071;BME280;30836;48.906;9.140;2023-01-31T00:25:28;995.21;;;8.70;51.17
45071;BME280;30836;48.906;9.140;2023-01-31T00:26:30;995.19;;;8.82;50.76
45071;BME280;30836;48.906;9.140;2023-01-31T00:27:32;995.17;;;8.92;50.61
45071;BME280;30836;48.906;9.140;2023-01-31T00:28:32;995.21;;;8.93;50.65
45071;BME280;30836;48.906;9.140;2023-01-31T00:29:33;995.17;;;8.93;50.55
45071;BME280;30836;48.906;9.140;2023-01-31T00:30:33;995.19;;;8.99;50.11
45071;BME280;30836;48.906;9.140;2023-01-31T00:31:34;995.19;;;9.13;49.73
45071;BME280;30836;48.906;9.140;2023-01-31T00:32:35;995.23;;;9.22;49.51
45071;BME280;30836;48.906;9.140;2023-01-31T00:33:36;995.17;;;9.24;49.63
45071;BME280;30836;48.906;9.140;2023-01-31T00:34:37;995.15;;;9.27;49.35
45071;BME280;30836;48.906;9.140;2023-01-31T00:35:38;995.15;;;9.34;49.08
45071;BME280;30836;48.906;9.140;2023-01-31T00:36:39;995.15;;;9.47;48.68
45071;BME280;30836;48.906;9.140;2023-01-31T00:37:39;995.17;;;9.58;48.35
45071;BME280;30836;48.906;9.140;2023-01-31T00:38:40;995.17;;;9.67;48.22
45071;BME280;30836;48.906;9.140;2023-01-31T00:39:40;995.21;;;9.73;48.11
45071;BME280;30836;48.906;9.140;2023-01-31T00:40:41;995.23;;;9.77;48.03
45071;BME280;30836;48.906;9.140;2023-01-31T00:41:41;995.19;;;9.81;47.79
45071;BME280;30836;48.906;9.140;2023-01-31T00:42:41;995.23;;;9.84;47.68
45071;BME280;30836;48.906;9.140;2023-01-31T00:43:42;995.19;;;9.85;47.59
45071;BME280;30836;48.906;9.140;2023-01-31T00:44:42;995.19;;;9.82;47.79
45071;BME280;30836;48.906;9.140;2023-01-31T00:45:43;995.17;;;9.81;47.73
45071;BME280;30836;48.906;9.140;2023-01-31T00:46:43;995.13;;;9.72;48.20
45071;BME280;30836;48.906;9.140;2023-01-31T00:47:43;995.15;;;9.62;48.16
45071;BME280;30836;48.906;9.140;2023-01-31T00:48:44;995.13;;;9.58;48.29
45071;BME280;30836;48.906;9.140;2023-01-31T00:49:44;995.17;;;9.59;47.92
45071;BME280;30836;48.906;9.140;2023-01-31T00:50:45;995.15;;;9.57;47.98
45071;BME280;30836;48.906;9.140;2023-01-31T00:51:45;995.17;;;9.51;47.93
45071;BME280;30836;48.906;9.140;2023-01-31T00:52:46;995.13;;;9.59;47.62
45071;BME280;30836;48.906;9.140;2023-01-31T00:53:46;995.17;;;9.69;47.51
45071;BME280;30836;48.906;9.140;2023-01-31T00:54:47;995.21;;;9.73;47.35
45071;BME280;30836;48.906;9.140;2023-01-31T00:55:48;995.23;;;9.74;47.44
45071;BME280;30836;48.906;9.140;2023-01-31T00:56:49;995.19;;;9.69;47.68
45071;BME280;30836;48.906;9.140;2023-01-31T00:57:50;995.21;;;9.69;47.53
45071;BME280;30836;48.906;9.140;2023-01-31T00:58:50;995.19;;;9.78;47.10
45071;BME280;30836;48.906;9.140;2023-01-31T00:59:51;995.17;;;9.76;47.63
45071;BME280;30836;48.906;9.140;2023-01-31T01:00:52;995.19;;;9.63;47.63
45071;BME280;30836;48.906;9.140;2023-01-31T01:01:52;995.15;;;9.56;47.81
45071;BME280;30836;48.906;9.140;2023-01-31T01:02:53;995.19;;;9.55;47.74
45071;BME280;30836;48.906;9.140;2023-01-31T01:03:54;995.19;;;9.64;47.41
45071;BME280;30836;48.906;9.140;2023-01-31T01:04:55;995.17;;;9.67;47.45
45071;BME280;30836;48.906;9.140;2023-01-31T01:05:56;995.19;;;9.61;47.53
45071;BME280;30836;48.906;9.140;2023-01-31T01:06:56;995.17;;;9.62;47.45
45071;BME280;30836;48.906;9.140;2023-01-31T01:07:57;995.15;;;9.62;47.43
45071;BME280;30836;48.906;9.140;2023-01-31T01:08:57;995.21;;;9.58;47.74
45071;BME280;30836;48.906;9.140;2023-01-31T01:09:58;995.17;;;9.53;47.98
45071;BME280;30836;48.906;9.140;2023-01-31T01:12:07;995.21;;;9.52;48.14
45071;BME280;30836;48.906;9.140;2023-01-31T01:13:08;995.19;;;9.42;48.35
45071;BME280;30836;48.906;9.140;2023-01-31T01:14:08;995.21;;;9.37;48.49
45071;BME280;30836;48.906;9.140;2023-01-31T01:15:08;995.19;;;9.34;48.52
45071;BME280;30836;48.906;9.140;2023-01-31T01:16:10;995.21;;;9.35;48.40
45071;BME280;30836;48.906;9.140;2023-01-31T01:17:13;995.19;;;9.36;48.43
45071;BME280;30836;48.906;9.140;2023-01-31T01:18:13;995.19;;;9.32;48.83
45071;BME280;30836;48.906;9.140;2023-01-31T01:19:15;995.23;;;9.26;48.73
45071;BME280;30836;48.906;9.140;2023-01-31T01:20:17;995.21;;;9.25;48.83
45071;BME280;30836;48.906;9.140;2023-01-31T01:21:19;995.15;;;9.24;48.90
45071;BME280;30836;48.906;9.140;2023-01-31T01:22:22;995.17;;;9.25;48.78
45071;BME280;30836;48.906;9.140;2023-01-31T01:23:22;995.15;;;9.17;49.16
45071;BME280;30836;48.906;9.140;2023-01-31T01:24:22;995.17;;;9.08;49.50
45071;BME280;30836;48.906;9.140;2023-01-31T01:25:23;995.23;;;9.11;49.10
45071;BME280;30836;48.906;9.140;2023-01-31T01:26:25;995.19;;;9.15;49.09
45071;BME280;30836;48.906;9.140;2023-01-31T01:27:27;995.13;;;9.21;48.97
45071;BME280;30836;48.906;9.140;2023-01-31T01:28:27;995.13;;;9.35;48.37
45071;BME280;30836;48.906;9.140;2023-01-31T01:29:32;995.11;;;9.52;47.97
45071;BME280;30836;48.906;9.140;2023-01-31T01:30:33;995.15;;;9.63;47.83
45071;BME280;30836;48.906;9.140;2023-01-31T01:31:33;995.17;;;9.69;47.67
45071;BME280;30836;48.906;9.140;2023-01-31T01:32:34;995.13;;;9.68;47.96
45071;BME280;30836;48.906;9.140;2023-01-31T01:33:34;995.13;;;9.66;47.76
45071;BME280;30836;48.906;9.140;2023-01-31T01:34:35;995.13;;;9.67;47.87
45071;BME280;30836;48.906;9.140;2023-01-31T01:35:36;995.11;;;9.63;48.06
45071;BME280;30836;48.906;9.140;2023-01-31T01:36:36;995.11;;;9.59;48.12
45071;BME280;30836;48.906;9.140;2023-01-31T01:37:37;995.11;;;9.53;48.22
45071;BME280;30836;48.906;9.140;2023-01-31T01:38:38;995.13;;;9.54;48.22
45071;BME280;30836;48.906;9.140;2023-01-31T01:39:39;995.13;;;9.54;48.19
45071;BME280;30836;48.906;9.140;2023-01-31T01:40:40;995.17;;;9.51;48.34
45071;BME280;30836;48.906;9.140;2023-01-31T01:41:40;995.13;;;9.45;48.73
45071;BME280;30836;48.906;9.140;2023-01-31T01:41:50;995.17;;;9.22;48.82
45071;BME280;30836;48.906;9.140;2023-01-31T01:42:51;995.17;;;9.26;48.79
45071;BME280;30836;48.906;9.140;2023-01-31T01:43:52;995.15;;;9.32;48.50
45071;BME280;30836;48.906;9.140;2023-01-31T01:44:58;995.19;;;9.33;48.55
45071;BME280;30836;48.906;9.140;2023-01-31T01:45:59;995.17;;;9.27;49.22
45071;BME280;30836;48.906;9.140;2023-01-31T01:47:00;995.21;;;9.25;49.04
45071;BME280;30836;48.906;9.140;2023-01-31T01:47:14;995.19;;;9.38;48.92
45071;BME280;30836;48.906;9.140;2023-01-31T01:48:20;995.27;;;9.42;48.42
45071;BME280;30836;48.906;9.140;2023-01-31T01:49:27;995.27;;;9.48;48.34
45071;BME280;30836;48.906;9.140;2023-01-31T01:50:38;995.29;;;9.49;48.47
45071;BME280;30836;48.906;9.140;2023-01-31T01:51:44;995.35;;;9.46;48.58
45071;BME280;30836;48.906;9.140;2023-01-31T01:52:51;995.35;;;9.45;48.72
45071;BME280;30836;48.906;9.140;2023-01-31T01:54:00;995.37;;;9.50;48.35
45071;BME280;30836;48.906;9.140;2023-01-31T01:55:13;995.37;;;9.56;48.33
45071;BME280;30836;48.906;9.140;2023-01-31T01:56:20;995.33;;;9.65;48.06
45071;BME280;30836;48.906;9.140;2023-01-31T01:57:26;995.33;;;9.81;47.66
45071;BME280;30836;48.906;9.140;2023-01-31T01:58:38;995.37;;;9.95;47.51
45071;BME280;30836;48.906;9.140;2023-01-31T01:59:44;995.41;;;10.01;47.45
45071;BME280;30836;48.906;9.140;2023-01-31T02:00:52;995.39;;;10.03;47.63
45071;BME280;30836;48.906;9.140;2023-01-31T02:01:54;995.37;;;10.10;47.31
45071;BME280;30836;48.906;9.140;2023-01-31T02:02:57;995.37;;;10.18;47.13
45071;BME280;30836;48.906;9.140;2023-01-31T02:03:08;995.35;;;10.30;47.12
45071;BME280;30836;48.906;9.140;2023-01-31T02:04:11;995.33;;;10.30;46.95
45071;BME280;30836;48.906;9.140;2023-01-31T02:05:16;995.35;;;10.27;47.29
45071;BME280;30836;48.906;9.140;2023-01-31T02:06:21;995.31;;;10.26;47.20
45071;BME280;30836;48.906;9.140;2023-01-31T02:07:22;995.31;;;10.29;46.98
45071;BME280;30836;48.906;9.140;2023-01-31T02:08:24;995.35;;;10.28;47.26
45071;BME280;30836;48.906;9.140;2023-01-31T02:10:36;995.37;;;10.15;47.49
45071;BME280;30836;48.906;9.140;2023-01-31T02:11:42;995.39;;;10.20;47.18
45071;BME280;30836;48.906;9.140;2023-01-31T02:12:43;995.43;;;10.31;46.94
45071;BME280;30836;48.906;9.140;2023-01-31T02:13:45;995.45;;;10.38;46.93
45071;BME280;30836;48.906;9.140;2023-01-31T02:14:46;995.49;;;10.38;47.17
45071;BME280;30836;48.906;9.140;2023-01-31T02:15:48;995.45;;;10.35;47.43
45071;BME280;30836;48.906;9.140;2023-01-31T02:16:48;995.49;;;10.31;47.43
45071;BME280;30836;48.906;9.140;2023-01-31T02:17:49;995.51;;;10.28;47.54
45071;BME280;30836;48.906;9.140;2023-01-31T02:18:49;995.49;;;10.30;47.36
45071;BME280;30836;48.906;9.140;2023-01-31T02:19:55;995.53;;;10.34;47.35
45071;BME280;30836;48.906;9.140;2023-01-31T02:22:11;995.58;;;10.28;47.78
45071;BME280;30836;48.906;9.140;2023-01-31T02:24:28;995.58;;;10.04;48.38
45071;BME280;30836;48.906;9.140;2023-01-31T02:27:56;995.58;;;9.79;49.28
45071;BME280;30836;48.906;9.140;2023-01-31T02:32:30;995.64;;;9.66;49.53
45071;BME280;30836;48.906;9.140;2023-01-31T02:38:21;995.70;;;9.59;50.09
45071;BME280;30836;48.906;9.140;2023-01-31T02:39:35;995.66;;;9.51;50.27
45071;BME280;30836;48.906;9.140;2023-01-31T02:45:50;995.70;;;9.41;50.74
45071;BME280;30836;48.906;9.140;2023-01-31T02:46:20;995.68;;;9.44;50.29
45071;BME280;30836;48.906;9.140;2023-01-31T02:49:47;995.72;;;9.69;50.07
45071;BME280;30836;48.906;9.140;2023-01-31T02:53:19;995.76;;;9.62;49.91
45071;BME280;30836;48.906;9.140;2023-01-31T02:54:25;995.78;;;9.66;50.00
45071;BME280;30836;48.906;9.140;2023-01-31T02:54:36;995.76;;;9.61;50.05
45071;BME280;30836;48.906;9.140;2023-01-31T02:55:42;995.72;;;9.63;50.07
45071;BME280;30836;48.906;9.140;2023-01-31T02:56:48;995.74;;;9.62;49.99
45071;BME280;30836;48.906;9.140;2023-01-31T02:57:50;995.78;;;9.46;50.79
45071;BME280;30836;48.906;9.140;2023-01-31T03:00:04;995.76;;;9.19;51.35
45071;BME280;30836;48.906;9.140;2023-01-31T03:01:09;995.72;;;9.13;51.41
45071;BME280;30836;48.906;9.140;2023-01-31T03:02:14;995.70;;;9.16;51.19
45071;BME280;30836;48.906;9.140;2023-01-31T03:03:19;995.74;;;9.23;51.14
45071;BME280;30836;48.906;9.140;2023-01-31T03:04:23;995.80;;;9.20;51.33
45071;BME280;30836;48.906;9.140;2023-01-31T03:05:24;995.78;;;9.13;51.59
45071;BME280;30836;48.906;9.140;2023-01-31T03:07:25;995.72;;;9.24;51.11
45071;BME280;30836;48.906;9.140;2023-01-31T03:08:30;995.76;;;9.29;51.06
45071;BME280;30836;48.906;9.140;2023-01-31T03:15:17;995.66;;;9.18;51.38
45071;BME280;30836;48.906;9.140;2023-01-31T03:21:01;995.64;;;9.39;50.79
45071;BME280;30836;48.906;9.140;2023-01-31T03:22:10;995.72;;;9.48;50.44
45071;BME280;30836;48.906;9.140;2023-01-31T03:23:15;995.68;;;9.58;50.38
45071;BME280;30836;48.906;9.140;2023-01-31T03:24:19;995.68;;;9.55;50.67
45071;BME280;30836;48.906;9.140;2023-01-31T03:25:22;995.72;;;9.47;50.68
45071;BME280;30836;48.906;9.140;2023-01-31T03:26:26;995.72;;;9.46;50.65
45071;BME280;30836;48.906;9.140;2023-01-31T03:27:27;995.68;;;9.44;50.79
45071;BME280;30836;48.906;9.140;2023-01-31T03:28:29;995.70;;;9.38;51.02
45071;BME280;30836;48.906;9.140;2023-01-31T03:29:32;995.70;;;9.33;51.09
45071;BME280;30836;48.906;9.140;2023-01-31T03:32:47;995.72;;;9.38;50.78
45071;BME280;30836;48.906;9.140;2023-01-31T03:35:01;995.68;;;9.56;50.44
45071;BME280;30836;48.906;9.140;2023-01-31T03:36:09;995.78;;;9.45;51.02
45071;BME280;30836;48.906;9.140;2023-01-31T03:37:18;995.78;;;9.42;50.73
45071;BME280;30836;48.906;9.140;2023-01-31T03:38:25;995.78;;;9.44;50.75
45071;BME280;30836;48.906;9.140;2023-01-31T03:39:35;995.86;;;9.36;51.04
45071;BME280;30836;48.906;9.140;2023-01-31T03:40:52;995.84;;;9.24;51.67
45071;BME280;30836;48.906;9.140;2023-01-31T03:42:00;995.86;;;9.12;51.65
45071;BME280;30836;48.906;9.140;2023-01-31T03:46:34;995.90;;;9.02;51.69
45071;BME280;30836;48.906;9.140;2023-01-31T03:47:42;995.94;;;8.98;51.97
45071;BME280;30836;48.906;9.140;2023-01-31T03:48:45;995.90;;;8.91;52.19
45071;BME280;30836;48.906;9.140;2023-01-31T03:49:01;995.84;;;8.84;52.13
45071;BME280;30836;48.906;9.140;2023-01-31T03:51:17;995.88;;;8.94;51.80
45071;BME280;30836;48.906;9.140;2023-01-31T03:54:32;995.86;;;9.21;51.06
45071;BME280;30836;48.906;9.140;2023-01-31T03:56:52;995.90;;;9.02;51.91
45071;BME280;30836;48.906;9.140;2023-01-31T03:57:57;995.96;;;8.88;52.29
45071;BME280;30836;48.906;9.140;2023-01-31T03:59:05;995.94;;;8.79;52.40
45071;BME280;30836;48.906;9.140;2023-01-31T04:00:13;995.94;;;8.67;52.98
45071;BME280;30836;48.906;9.140;2023-01-31T04:01:16;996.00;;;8.53;53.15
45071;BME280;30836;48.906;9.140;2023-01-31T04:02:19;996.00;;;8.50;53.01
45071;BME280;30836;48.906;9.140;2023-01-31T04:04:36;996.00;;;8.58;52.79
45071;BME280;30836;48.906;9.140;2023-01-31T04:05:41;996.04;;;8.67;52.44
45071;BME280;30836;48.906;9.140;2023-01-31T04:06:42;996.06;;;8.77;52.03
45071;BME280;30836;48.906;9.140;2023-01-31T04:07:43;996.04;;;8.76;52.41
45071;BME280;30836;48.906;9.140;2023-01-31T04:08:46;996.06;;;8.74;52.36
45071;BME280;30836;48.906;9.140;2023-01-31T04:09:46;996.09;;;8.71;52.42
45071;BME280;30836;48.906;9.140;2023-01-31T04:10:47;996.08;;;8.64;52.66
45071;BME280;30836;48.906;9.140;2023-01-31T04:11:49;996.09;;;8.62;52.57
45071;BME280;30836;48.906;9.140;2023-01-31T04:12:50;996.11;;;8.62;52.47
45071;BME280;30836;48.906;9.140;2023-01-31T04:13:51;996.09;;;8.57;52.53
45071;BME280;30836;48.906;9.140;2023-01-31T04:14:52;996.11;;;8.58;52.52
45071;BME280;30836;48.906;9.140;2023-01-31T04:15:52;996.11;;;8.58;52.58
45071;BME280;30836;48.906;9.140;2023-01-31T04:16:53;996.09;;;8.58;52.58
45071;BME280;30836;48.906;9.140;2023-01-31T04:17:53;996.09;;;8.63;52.12
45071;BME280;30836;48.906;9.140;2023-01-31T04:18:54;996.09;;;8.73;51.77
45071;BME280;30836;48.906;9.140;2023-01-31T04:19:54;996.08;;;8.76;51.98
45071;BME280;30836;48.906;9.140;2023-01-31T04:20:54;996.09;;;8.74;51.97
45071;BME280;30836;48.906;9.140;2023-01-31T04:21:55;996.09;;;8.81;51.55
45071;BME280;30836;48.906;9.140;2023-01-31T04:22:55;996.09;;;8.85;51.66
45071;BME280;30836;48.906;9.140;2023-01-31T04:23:56;996.11;;;8.88;51.51
45071;BME280;30836;48.906;9.140;2023-01-31T04:24:56;996.08;;;8.95;51.20
45071;BME280;30836;48.906;9.140;2023-01-31T04:25:57;996.09;;;9.00;51.21
45071;BME280;30836;48.906;9.140;2023-01-31T04:26:57;996.08;;;9.06;50.89
45071;BME280;30836;48.906;9.140;2023-01-31T04:27:58;996.09;;;9.14;50.65
45071;BME280;30836;48.906;9.140;2023-01-31T04:28:58;996.11;;;9.23;50.46
45071;BME280;30836;48.906;9.140;2023-01-31T04:29:58;996.15;;;9.27;50.23
45071;BME280;30836;48.906;9.140;2023-01-31T04:30:59;996.15;;;9.28;50.27
45071;BME280;30836;48.906;9.140;2023-01-31T04:31:59;996.15;;;9.28;50.19
45071;BME280;30836;48.906;9.140;2023-01-31T04:33:00;996.11;;;9.25;50.35
45071;BME280;30836;48.906;9.140;2023-01-31T04:34:01;996.13;;;9.19;50.45
45071;BME280;30836;48.906;9.140;2023-01-31T04:35:02;996.17;;;9.15;50.47
45071;BME280;30836;48.906;9.140;2023-01-31T04:36:03;996.17;;;9.06;50.98
45071;BME280;30836;48.906;9.140;2023-01-31T04:37:04;996.17;;;8.97;51.21
45071;BME280;30836;48.906;9.140;2023-01-31T04:38:04;996.17;;;8.93;51.27
45071;BME280;30836;48.906;9.140;2023-01-31T04:39:05;996.15;;;8.91;51.07
45071;BME280;30836;48.906;9.140;2023-01-31T04:40:05;996.13;;;8.94;51.16
45071;BME280;30836;48.906;9.140;2023-01-31T04:41:07;996.13;;;8.97;51.17
45071;BME280;30836;48.906;9.140;2023-01-31T04:42:07;996.13;;;9.01;50.88
45071;BME280;30836;48.906;9.140;2023-01-31T04:43:07;996.13;;;9.03;50.81
45071;BME280;30836;48.906;9.140;2023-01-31T04:44:08;996.13;;;9.04;50.85
45071;BME280;30836;48.906;9.140;2023-01-31T04:45:08;996.11;;;8.97;51.30
45071;BME280;30836;48.906;9.140;2023-01-31T04:46:09;996.11;;;8.85;51.69
45071;BME280;30836;48.906;9.140;2023-01-31T04:47:10;996.11;;;8.80;51.63
45071;BME280;30836;48.906;9.140;2023-01-31T04:48:10;996.15;;;8.73;51.94
45071;BME280;30836;48.906;9.140;2023-01-31T04:49:14;996.13;;;8.64;52.43
45071;BME280;30836;48.906;9.140;2023-01-31T04:50:15;996.09;;;8.56;52.52
45071;BME280;30836;48.906;9.140;2023-01-31T04:51:15;996.06;;;8.50;52.61
45071;BME280;30836;48.906;9.140;2023-01-31T04:52:16;996.06;;;8.47;52.61
45071;BME280;30836;48.906;9.140;2023-01-31T04:53:16;996.02;;;8.49;52.50
45071;BME280;30836;48.906;9.140;2023-01-31T04:54:17;996.02;;;8.47;52.61
45071;BME280;30836;48.906;9.140;2023-01-31T04:55:17;996.00;;;8.44;52.80
45071;BME280;30836;48.906;9.140;2023-01-31T04:56:18;996.02;;;8.40;53.02
45071;BME280;30836;48.906;9.140;2023-01-31T04:57:18;995.94;;;8.35;53.19
45071;BME280;30836;48.906;9.140;2023-01-31T04:58:19;995.98;;;8.33;53.13
45071;BME280;30836;48.906;9.140;2023-01-31T04:59:19;996.00;;;8.36;52.97
45071;BME280;30836;48.906;9.140;2023-01-31T05:00:19;996.02;;;8.36;53.09
45071;BME280;30836;48.906;9.140;2023-01-31T05:01:20;996.06;;;8.36;53.09
45071;BME280;30836;48.906;9.140;2023-01-31T05:02:21;996.04;;;8.43;53.04
45071;BME280;30836;48.906;9.140;2023-01-31T05:03:21;996.06;;;8.50;52.90
45071;BME280;30836;48.906;9.140;2023-01-31T05:04:22;996.08;;;8.56;52.72
45071;BME280;30836;48.906;9.140;2023-01-31T05:05:22;996.08;;;8.59;52.78
45071;BME280;30836;48.906;9.140;2023-01-31T05:06:23;996.09;;;8.57;52.85
45071;BME280;30836;48.906;9.140;2023-01-31T05:07:23;996.13;;;8.55;52.85
45071;BME280;30836;48.906;9.140;2023-01-31T05:08:23;996.11;;;8.49;53.22
45071;BME280;30836;48.906;9.140;2023-01-31T05:09:24;996.06;;;8.37;53.73
45071;BME280;30836;48.906;9.140;2023-01-31T05:10:24;996.06;;;8.26;53.83
45071;BME280;30836;48.906;9.140;2023-01-31T05:11:25;996.02;;;8.20;53.89
45071;BME280;30836;48.906;9.140;2023-01-31T05:12:25;996.04;;;8.20;53.85
45071;BME280;30836;48.906;9.140;2023-01-31T05:13:26;996.02;;;8.22;53.84
45071;BME280;30836;48.906;9.140;2023-01-31T05:14:26;996.02;;;8.25;53.65
45071;BME280;30836;48.906;9.140;2023-01-31T05:15:27;996.02;;;8.35;53.36
45071;BME280;30836;48.906;9.140;2023-01-31T05:16:27;996.04;;;8.45;53.02
45071;BME280;30836;48.906;9.140;2023-01-31T05:17:28;996.04;;;8.45;53.46
45071;BME280;30836;48.906;9.140;2023-01-31T05:18:28;996.00;;;8.38;53.53
45071;BME280;30836;48.906;9.140;2023-01-31T05:19:29;996.02;;;8.29;53.80
45071;BME280;30836;48.906;9.140;2023-01-31T05:20:30;996.04;;;8.25;53.90
45071;BME280;30836;48.906;9.140;2023-01-31T05:21:33;996.08;;;8.28;53.78
45071;BME280;30836;48.906;9.140;2023-01-31T05:22:33;996.08;;;8.37;53.61
45071;BME280;30836;48.906;9.140;2023-01-31T05:23:34;996.09;;;8.42;53.04
45071;BME280;30836;48.906;9.140;2023-01-31T05:24:34;996.09;;;8.54;52.74
45071;BME280;30836;48.906;9.140;2023-01-31T05:25:35;996.09;;;8.73;52.29
45071;BME280;30836;48.906;9.140;2023-01-31T05:26:36;996.08;;;8.90;51.78
45071;BME280;30836;48.906;9.140;2023-01-31T05:27:37;996.13;;;9.05;51.41
45071;BME280;30836;48.906;9.140;2023-01-31T05:28:37;996.08;;;9.12;51.40
45071;BME280;30836;48.906;9.140;2023-01-31T05:29:37;996.11;;;9.12;51.36
45071;BME280;30836;48.906;9.140;2023-01-31T05:30:38;996.11;;;9.22;50.99
45071;BME280;30836;48.906;9.140;2023-01-31T05:31:38;996.09;;;9.30;50.92
45071;BME280;30836;48.906;9.140;2023-01-31T05:32:39;996.06;;;9.37;50.50
45071;BME280;30836;48.906;9.140;2023-01-31T05:33:39;996.08;;;9.50;50.17
45071;BME280;30836;48.906;9.140;2023-01-31T05:34:40;996.06;;;9.56;50.23
45071;BME280;30836;48.906;9.140;2023-01-31T05:35:40;996.06;;;9.53;50.42
45071;BME280;30836;48.906;9.140;2023-01-31T05:36:41;996.08;;;9.49;50.37
45071;BME280;30836;48.906;9.140;2023-01-31T05:37:42;996.08;;;9.49;49.98
45071;BME280;30836;48.906;9.140;2023-01-31T05:38:42;996.08;;;9.49;50.26
45071;BME280;30836;48.906;9.140;2023-01-31T05:39:43;996.08;;;9.53;49.90
45071;BME280;30836;48.906;9.140;2023-01-31T05:40:43;996.06;;;9.60;49.65
45071;BME280;30836;48.906;9.140;2023-01-31T05:41:44;996.09;;;9.60;49.68
45071;BME280;30836;48.906;9.140;2023-01-31T05:42:45;996.06;;;9.54;49.97
45071;BME280;30836;48.906;9.140;2023-01-31T05:43:52;996.06;;;9.55;49.76
45071;BME280;30836;48.906;9.140;2023-01-31T05:44:53;996.06;;;9.57;49.61
45071;BME280;30836;48.906;9.140;2023-01-31T05:45:53;996.02;;;9.60;49.34
45071;BME280;30836;48.906;9.140;2023-01-31T05:46:53;996.06;;;9.68;48.94
45071;BME280;30836;48.906;9.140;2023-01-31T05:47:55;996.08;;;9.72;48.97
45071;BME280;30836;48.906;9.140;2023-01-31T05:48:56;996.08;;;9.74;48.85
45071;BME280;30836;48.906;9.140;2023-01-31T05:49:56;996.09;;;9.77;48.79
45071;BME280;30836;48.906;9.140;2023-01-31T05:50:57;996.09;;;9.78;48.75
45071;BME280;30836;48.906;9.140;2023-01-31T05:51:58;996.08;;;9.78;48.75
45071;BME280;30836;48.906;9.140;2023-01-31T05:52:59;996.09;;;9.78;48.63
45071;BME280;30836;48.906;9.140;2023-01-31T05:53:59;996.06;;;9.80;48.39
45071;BME280;30836;48.906;9.140;2023-01-31T05:55:00;996.06;;;9.83;48.37
45071;BME280;30836;48.906;9.140;2023-01-31T05:56:00;996.08;;;9.86;48.17
45071;BME280;30836;48.906;9.140;2023-01-31T05:57:01;996.08;;;9.83;48.35
45071;BME280;30836;48.906;9.140;2023-01-31T05:58:01;996.06;;;9.77;48.51
45071;BME280;30836;48.906;9.140;2023-01-31T05:59:02;996.08;;;9.76;48.24
45071;BME280;30836;48.906;9.140;2023-01-31T06:00:02;996.08;;;9.78;48.23
45071;BME280;30836;48.906;9.140;2023-01-31T06:01:03;996.08;;;9.81;48.05
45071;BME280;30836;48.906;9.140;2023-01-31T06:02:04;996.09;;;9.83;48.03
45071;BME280;30836;48.906;9.140;2023-01-31T06:03:04;996.08;;;9.84;47.84
45071;BME280;30836;48.906;9.140;2023-01-31T06:04:05;996.11;;;9.86;47.82
45071;BME280;30836;48.906;9.140;2023-01-31T06:05:05;996.13;;;9.85;47.78
45071;BME280;30836;48.906;9.140;2023-01-31T06:06:06;996.13;;;9.87;47.62
45071;BME280;30836;48.906;9.140;2023-01-31T06:07:07;996.11;;;9.90;47.63
45071;BME280;30836;48.906;9.140;2023-01-31T06:08:07;996.15;;;9.94;47.53
45071;BME280;30836;48.906;9.140;2023-01-31T06:09:07;996.11;;;9.98;47.43
45071;BME280;30836;48.906;9.140;2023-01-31T06:10:08;996.13;;;10.01;47.29
45071;BME280;30836;48.906;9.140;2023-01-31T06:11:10;996.13;;;10.01;47.27
45071;BME280;30836;48.906;9.140;2023-01-31T06:12:12;996.11;;;10.01;47.20
45071;BME280;30836;48.906;9.140;2023-01-31T06:13:13;996.15;;;10.02;47.09
45071;BME280;30836;48.906;9.140;2023-01-31T06:14:13;996.13;;;10.01;47.18
45071;BME280;30836;48.906;9.140;2023-01-31T06:15:13;996.13;;;10.02;47.10
45071;BME280;30836;48.906;9.140;2023-01-31T06:16:14;996.13;;;10.04;46.99
45071;BME280;30836;48.906;9.140;2023-01-31T06:17:14;996.08;;;10.05;47.04
45071;BME280;30836;48.906;9.140;2023-01-31T06:18:15;996.08;;;10.04;47.04
45071;BME280;30836;48.906;9.140;2023-01-31T06:19:15;996.06;;;10.05;46.89
45071;BME280;30836;48.906;9.140;2023-01-31T06:20:16;996.08;;;10.07;46.78
45071;BME280;30836;48.906;9.140;2023-01-31T06:21:16;996.11;;;10.08;46.80
45071;BME280;30836;48.906;9.140;2023-01-31T06:22:20;996.11;;;10.09;46.68
45071;BME280;30836;48.906;9.140;2023-01-31T06:23:20;996.13;;;10.11;46.58
45071;BME280;30836;48.906;9.140;2023-01-31T06:24:21;996.13;;;10.16;46.38
45071;BME280;30836;48.906;9.140;2023-01-31T06:25:21;996.13;;;10.19;46.27
45071;BME280;30836;48.906;9.140;2023-01-31T06:26:22;996.13;;;10.20;46.30
45071;BME280;30836;48.906;9.140;2023-01-31T06:27:23;996.13;;;10.19;46.28
45071;BME280;30836;48.906;9.140;2023-01-31T06:28:23;996.13;;;10.17;46.25